createdAt,value
2022-08-04T00:03:08.640Z,1004.823
2022-08-04T00:23:07.512Z,1004.811
2022-08-04T00:43:07.481Z,1004.817
2022-08-04T01:03:08.506Z,1004.826
2022-08-04T01:23:08.085Z,1004.747
2022-08-04T01:43:07.881Z,1004.589
2022-08-04T02:03:08.818Z,1004.509
2022-08-04T02:23:07.714Z,1004.203
2022-08-04T02:43:07.559Z,1004.054
2022-08-04T03:03:08.369Z,1003.886
2022-08-04T03:23:14.840Z,1003.709
2022-08-04T03:43:07.683Z,1003.644
2022-08-04T04:03:08.594Z,1003.554
2022-08-04T04:23:11.453Z,1003.634
2022-08-04T04:43:07.762Z,1003.473
2022-08-04T05:03:10.267Z,1003.366
2022-08-04T05:23:08.002Z,1003.272
2022-08-04T05:43:07.946Z,1003.323
2022-08-04T06:03:08.779Z,1003.27
2022-08-04T06:23:07.543Z,1003.249
2022-08-04T06:43:07.734Z,1003.267
2022-08-04T07:03:08.601Z,1003.256
2022-08-04T07:23:08.066Z,1003.081
2022-08-04T07:43:08.063Z,1003.167
2022-08-04T08:03:09.069Z,1003.07
2022-08-04T08:23:07.878Z,1002.984
2022-08-04T08:44:08.910Z,1003.04
2022-08-04T09:03:08.120Z,1003.001
2022-08-04T09:23:07.910Z,1002.967
2022-08-04T09:43:07.893Z,1002.924
2022-08-04T10:03:09.485Z,1002.855
2022-08-04T10:23:13.085Z,1002.736
2022-08-04T10:43:23.461Z,1002.703
2022-08-04T11:03:09.339Z,1002.512
2022-08-04T11:23:07.297Z,1002.571
2022-08-04T11:43:07.311Z,1002.635
2022-08-04T12:03:08.345Z,1002.574
2022-08-04T12:23:07.498Z,1002.631
2022-08-04T12:43:07.738Z,1002.671
2022-08-04T13:03:11.075Z,1002.711
2022-08-04T13:23:09.667Z,1002.666
2022-08-04T13:44:20.880Z,1002.734
2022-08-04T14:03:25.330Z,1002.648
2022-08-04T14:23:07.239Z,1002.567
2022-08-04T14:43:10.343Z,1002.692
2022-08-04T15:03:08.469Z,1002.978
2022-08-04T15:23:11.714Z,1003.062
2022-08-04T15:43:10.050Z,1002.987
2022-08-04T16:03:08.929Z,1003.011
2022-08-04T16:23:37.526Z,1003.062
2022-08-04T16:43:07.437Z,1003.146
2022-08-04T17:03:08.597Z,1003.154
2022-08-04T17:23:07.542Z,1003.231
2022-08-04T17:44:07.737Z,1003.235
2022-08-04T18:03:11.912Z,1003.441
2022-08-04T18:23:07.229Z,1003.595
2022-08-04T18:43:15.056Z,1003.877
2022-08-04T19:03:10.044Z,1004.151
2022-08-04T19:24:35.871Z,1004.04
2022-08-04T19:43:16.102Z,1003.989
2022-08-04T20:03:12.494Z,1003.8
2022-08-04T20:23:10.806Z,1004.394
2022-08-04T20:43:09.401Z,1004.458
2022-08-04T21:03:08.352Z,1004.329
2022-08-04T21:23:08.361Z,1004.719
2022-08-04T21:43:08.900Z,1004.68
2022-08-04T22:03:57.588Z,1004.601
2022-08-04T22:23:25.371Z,1004.767
2022-08-04T22:43:35.178Z,1005.198
2022-08-04T23:03:11.800Z,1005.411
2022-08-04T23:23:15.859Z,1005.559
2022-08-04T23:43:18.670Z,1005.6
